Time;durP1;ratioP1;P1;durP2;ratioP2;P2;SDS_P1;SDS_P2;PMS_P1;PMS_P2;Temp;Humidity;BMP_temperature;BMP_pressure;BME280_temperature;BME280_humidity;BME280_pressure;Samples;Min_cycle;Max_cycle;Signal;HPM_P1;HPM_P2
2023/09/10 00:02:14;;;;;;;8.00;7.20;;;18.90;99.90;;;;;;5033187;28;20465;-58
2023/09/10 00:04:41;;;;;;;8.87;7.60;;;18.90;99.90;;;;;;5032790;28;20804;-57
2023/09/10 00:07:08;;;;;;;7.57;6.87;;;18.90;99.90;;;;;;5033060;28;20441;-57
2023/09/10 00:09:35;;;;;;;8.07;7.37;;;18.80;99.90;;;;;;5033085;28;20515;-58
2023/09/10 00:12:01;;;;;;;7.83;6.83;;;18.80;99.90;;;;;;5033076;28;20464;-59
2023/09/10 00:14:29;;;;;;;8.37;7.10;;;18.70;99.90;;;;;;5032953;28;20445;-57
2023/09/10 00:16:56;;;;;;;9.13;7.10;;;18.70;99.90;;;;;;5032942;28;20477;-59
2023/09/10 00:19:23;;;;;;;9.60;7.40;;;18.70;99.90;;;;;;5032892;28;20460;-58
2023/09/10 00:21:50;;;;;;;11.70;8.20;;;18.60;99.90;;;;;;5032770;28;20475;-58
2023/09/10 00:24:16;;;;;;;8.50;7.60;;;18.60;99.90;;;;;;5032701;28;20933;-58
2023/09/10 00:26:43;;;;;;;8.00;7.27;;;18.60;99.90;;;;;;5033087;28;20444;-57
2023/09/10 00:29:10;;;;;;;8.30;7.00;;;18.60;99.90;;;;;;5037211;28;20440;-57
2023/09/10 00:31:38;;;;;;;8.10;7.40;;;18.60;99.90;;;;;;5036931;28;20536;-59
2023/09/10 00:34:04;;;;;;;9.40;7.03;;;18.50;99.90;;;;;;5036918;28;20448;-58
2023/09/10 00:36:31;;;;;;;8.83;7.87;;;18.50;99.90;;;;;;5036826;28;20841;-58
2023/09/10 00:38:58;;;;;;;7.50;6.80;;;18.50;99.90;;;;;;5036844;28;20448;-57
2023/09/10 00:41:25;;;;;;;9.90;7.77;;;18.40;99.90;;;;;;5036605;28;20832;-57
2023/09/10 00:43:51;;;;;;;8.20;7.50;;;18.40;99.90;;;;;;5036661;28;20441;-59
2023/09/10 00:46:18;;;;;;;12.37;7.80;;;18.40;99.90;;;;;;5036890;28;20444;-57
2023/09/10 00:48:47;;;;;;;8.33;7.53;;;18.40;99.90;;;;;;5036826;28;20453;-57
2023/09/10 00:51:14;;;;;;;7.73;6.93;;;18.30;99.90;;;;;;5036531;28;20465;-58
2023/09/10 00:53:42;;;;;;;8.10;7.30;;;18.30;99.90;;;;;;5036858;28;20444;-57
2023/09/10 00:56:10;;;;;;;8.17;7.20;;;18.30;99.90;;;;;;5036993;28;20444;-58
2023/09/10 00:58:37;;;;;;;11.80;7.93;;;18.30;99.90;;;;;;5036352;28;20476;-58
2023/09/10 01:01:04;;;;;;;8.10;7.40;;;18.20;99.90;;;;;;5036291;28;20827;-57
2023/09/10 01:03:31;;;;;;;8.50;7.67;;;18.20;99.90;;;;;;5036398;28;20453;-59
2023/09/10 01:06:00;;;;;;;7.90;7.10;;;18.20;99.90;;;;;;5036153;28;20923;-58
2023/09/10 01:08:27;;;;;;;8.93;7.50;;;18.20;99.90;;;;;;5036341;28;20444;-57
2023/09/10 01:11:03;;;;;;;8.60;7.40;;;18.20;99.90;;;;;;5035871;28;20942;-58
2023/09/10 01:13:41;;;;;;;9.27;8.00;;;18.20;99.90;;;;;;5036323;28;20520;-59
2023/09/10 01:16:13;;;;;;;8.47;7.77;;;18.20;99.90;;;;;;5036210;28;20429;-59
2023/09/10 01:18:46;;;;;;;8.80;7.90;;;18.20;99.90;;;;;;5036914;28;20464;-58
2023/09/10 01:21:36;;;;;;;9.93;8.47;;;18.20;99.90;;;;;;5035837;28;20468;-58
2023/09/10 01:24:14;;;;;;;8.07;7.20;;;18.20;99.90;;;;;;5032556;28;20453;-58
2023/09/10 01:26:42;;;;;;;8.47;7.67;;;18.10;99.90;;;;;;5035816;28;20949;-58
2023/09/10 01:29:13;;;;;;;9.07;8.20;;;18.10;99.90;;;;;;5036112;28;20518;-57
2023/09/10 01:31:43;;;;;;;10.33;8.53;;;18.10;99.90;;;;;;5035896;28;20457;-57
2023/09/10 01:34:13;;;;;;;7.87;7.17;;;18.10;99.90;;;;;;5035630;28;20445;-58
2023/09/10 01:36:43;;;;;;;9.00;7.70;;;18.10;99.90;;;;;;5035541;28;20942;-58
2023/09/10 01:39:18;;;;;;;13.20;7.93;;;18.10;99.90;;;;;;5034934;28;20441;-59
2023/09/10 01:41:47;;;;;;;8.27;7.50;;;18.00;99.90;;;;;;5035617;28;20566;-57
2023/09/10 01:44:15;;;;;;;8.83;8.00;;;18.00;99.90;;;;;;5035604;28;20811;-58
2023/09/10 01:46:43;;;;;;;10.33;9.23;;;18.00;99.90;;;;;;5035655;28;20494;-57
2023/09/10 01:49:10;;;;;;;8.50;7.70;;;18.00;99.90;;;;;;5035465;28;20451;-57
2023/09/10 01:51:37;;;;;;;10.93;8.33;;;17.90;99.90;;;;;;5035435;28;20461;-58
2023/09/10 01:54:04;;;;;;;8.63;7.93;;;17.90;99.90;;;;;;5035260;28;20825;-57
2023/09/10 01:56:31;;;;;;;8.60;7.80;;;17.90;99.90;;;;;;5035389;28;20437;-57
2023/09/10 01:58:59;;;;;;;8.23;7.43;;;17.90;99.90;;;;;;5035290;28;20487;-57
2023/09/10 02:01:25;;;;;;;10.00;8.00;;;17.90;99.90;;;;;;5035642;28;20465;-57
2023/09/10 02:03:52;;;;;;;8.40;7.60;;;17.90;99.90;;;;;;5035939;28;20448;-57
2023/09/10 02:06:19;;;;;;;8.70;7.90;;;17.90;99.90;;;;;;5034944;28;20931;-57
2023/09/10 02:08:46;;;;;;;8.60;7.80;;;17.80;99.90;;;;;;5034918;28;20440;-57
2023/09/10 02:11:13;;;;;;;8.90;8.00;;;17.80;99.90;;;;;;5035517;28;20464;-57
2023/09/10 02:13:41;;;;;;;8.97;8.10;;;17.80;99.90;;;;;;5035104;28;20437;-57
2023/09/10 02:16:09;;;;;;;9.40;8.50;;;17.80;99.90;;;;;;5034982;28;20449;-57
2023/09/10 02:18:35;;;;;;;9.57;8.30;;;17.80;99.90;;;;;;5035088;28;20487;-59
2023/09/10 02:21:09;;;;;;;8.87;8.00;;;17.70;99.90;;;;;;5034438;28;20922;-57
2023/09/10 02:23:36;;;;;;;10.13;8.63;;;17.70;99.90;;;;;;5034773;28;20479;-57
2023/09/10 02:26:03;;;;;;;8.80;7.90;;;17.70;99.90;;;;;;5034761;28;20447;-59
2023/09/10 02:28:29;;;;;;;9.33;8.43;;;17.70;99.90;;;;;;5034695;28;20448;-59
2023/09/10 02:30:56;;;;;;;9.40;8.50;;;17.70;99.90;;;;;;5034779;28;20449;-58
2023/09/10 02:33:24;;;;;;;8.80;8.00;;;17.70;99.90;;;;;;5034640;28;20468;-59
2023/09/10 02:35:51;;;;;;;9.03;8.13;;;17.70;99.90;;;;;;5034981;28;20453;-58
2023/09/10 02:38:18;;;;;;;9.80;8.20;;;17.70;99.90;;;;;;5034658;28;20477;-57
2023/09/10 02:40:45;;;;;;;12.80;8.10;;;17.60;99.90;;;;;;5034434;28;20474;-58
2023/09/10 02:43:11;;;;;;;9.43;8.57;;;17.60;99.90;;;;;;5034405;28;20465;-59
2023/09/10 02:45:38;;;;;;;9.13;8.27;;;17.60;99.90;;;;;;5034411;28;20444;-58
2023/09/10 02:48:05;;;;;;;8.60;7.90;;;17.60;99.90;;;;;;5034340;28;20446;-57
2023/09/10 02:50:34;;;;;;;10.17;9.30;;;17.60;99.90;;;;;;5033363;28;20552;-58
2023/09/10 02:53:01;;;;;;;10.37;9.20;;;17.50;99.90;;;;;;5034110;28;20468;-58
2023/09/10 02:55:27;;;;;;;12.83;10.90;;;17.60;99.90;;;;;;5034305;28;20443;-58
2023/09/10 02:57:54;;;;;;;11.90;10.87;;;17.50;99.90;;;;;;5034651;28;20481;-57
2023/09/10 03:00:25;;;;;;;13.13;11.83;;;17.60;99.90;;;;;;5033894;28;20448;-58
2023/09/10 03:02:52;;;;;;;15.63;13.40;;;17.50;99.90;;;;;;5034021;28;20581;-58
2023/09/10 03:05:19;;;;;;;16.07;14.47;;;17.60;99.90;;;;;;5033818;28;20441;-58
2023/09/10 03:07:47;;;;;;;17.70;15.90;;;17.70;99.90;;;;;;5034222;28;20444;-58
2023/09/10 03:10:14;;;;;;;18.87;16.90;;;17.70;99.90;;;;;;5033752;28;20441;-58
2023/09/10 03:12:41;;;;;;;20.90;17.93;;;17.80;99.90;;;;;;5034096;28;20476;-58
2023/09/10 03:15:08;;;;;;;26.10;21.80;;;17.80;99.90;;;;;;5034129;28;20437;-58
2023/09/10 03:17:35;;;;;;;23.87;21.20;;;17.90;99.90;;;;;;5033883;28;20564;-58
2023/09/10 03:20:04;;;;;;;23.87;21.57;;;17.90;99.90;;;;;;5033572;28;20441;-58
2023/09/10 03:22:30;;;;;;;26.30;23.50;;;17.90;99.90;;;;;;5033363;28;20905;-57
2023/09/10 03:24:58;;;;;;;21.77;19.67;;;17.90;99.90;;;;;;5033575;28;20445;-58
2023/09/10 03:27:25;;;;;;;22.63;20.23;;;18.00;99.90;;;;;;5033541;28;20884;-58
2023/09/10 03:29:52;;;;;;;30.33;19.90;;;18.00;99.90;;;;;;5033842;28;20953;-58
2023/09/10 03:32:19;;;;;;;22.30;19.90;;;17.90;99.90;;;;;;5033665;28;20464;-58
2023/09/10 03:34:45;;;;;;;23.53;20.60;;;18.00;99.90;;;;;;5033743;28;20444;-58
2023/09/10 03:37:12;;;;;;;20.77;18.60;;;17.90;99.90;;;;;;5034401;28;20441;-58
2023/09/10 03:39:39;;;;;;;22.73;19.10;;;17.80;99.90;;;;;;5033375;28;20441;-58
2023/09/10 03:42:08;;;;;;;24.00;21.70;;;17.80;99.90;;;;;;5033442;28;20472;-58
2023/09/10 03:44:34;;;;;;;21.53;19.33;;;17.80;99.90;;;;;;5033436;28;20825;-58
2023/09/10 03:47:01;;;;;;;26.33;23.80;;;17.70;99.90;;;;;;5033463;28;20441;-58
2023/09/10 03:49:28;;;;;;;29.40;25.77;;;17.70;99.90;;;;;;5033366;28;20440;-58
2023/09/10 03:51:57;;;;;;;30.90;27.57;;;17.70;99.90;;;;;;5032939;28;20465;-58
2023/09/10 03:54:23;;;;;;;40.20;30.90;;;17.70;99.90;;;;;;5032977;28;20874;-58
2023/09/10 03:56:50;;;;;;;33.37;29.80;;;17.70;99.90;;;;;;5033091;28;20455;-58
2023/09/10 03:59:19;;;;;;;37.53;33.10;;;17.70;99.90;;;;;;5033814;28;20495;-58
2023/09/10 04:01:45;;;;;;;40.67;33.63;;;17.70;99.90;;;;;;5032771;28;20830;-58
2023/09/10 04:04:12;;;;;;;41.03;36.90;;;17.70;99.90;;;;;;5033231;28;20444;-58
2023/09/10 04:06:39;;;;;;;40.10;34.00;;;17.70;99.90;;;;;;5033714;28;20458;-58
2023/09/10 04:12:11;;;;;;;40.90;36.57;;;17.70;99.90;;;;;;5091245;27;20558;-56
2023/09/10 04:14:38;;;;;;;44.07;39.10;;;17.70;99.90;;;;;;5091214;28;20947;-56
2023/09/10 04:17:04;;;;;;;45.30;38.00;;;17.70;99.90;;;;;;5090867;28;20449;-56
2023/09/10 04:19:31;;;;;;;43.30;38.00;;;17.70;99.90;;;;;;5090854;28;20824;-55
2023/09/10 04:21:58;;;;;;;42.77;38.20;;;17.80;99.90;;;;;;5090310;28;20454;-56
2023/09/10 04:24:25;;;;;;;48.37;38.47;;;17.70;99.90;;;;;;5090400;28;20443;-57
2023/09/10 04:26:51;;;;;;;44.07;39.17;;;17.70;99.90;;;;;;5090066;28;20978;-56
2023/09/10 04:29:20;;;;;;;44.30;39.47;;;17.70;99.90;;;;;;5090191;28;20449;-56
2023/09/10 04:31:47;;;;;;;47.93;42.57;;;17.70;99.90;;;;;;5090236;28;20917;-56
2023/09/10 04:34:13;;;;;;;47.40;42.23;;;17.70;99.90;;;;;;5089960;28;21027;-57
2023/09/10 04:36:41;;;;;;;51.93;42.80;;;17.70;99.90;;;;;;5090258;28;20438;-56
2023/09/10 04:39:08;;;;;;;48.10;41.00;;;17.70;99.90;;;;;;5090255;28;20446;-57
2023/09/10 04:41:35;;;;;;;49.23;42.40;;;17.70;99.90;;;;;;5089892;28;20459;-56
2023/09/10 04:44:02;;;;;;;49.07;43.87;;;17.70;99.90;;;;;;5090097;28;20450;-56
2023/09/10 04:46:30;;;;;;;55.67;43.17;;;17.70;99.90;;;;;;5090020;28;20443;-57
2023/09/10 04:48:58;;;;;;;48.17;42.97;;;17.70;99.90;;;;;;5089847;28;20450;-57
2023/09/10 04:51:25;;;;;;;52.73;42.20;;;17.70;99.90;;;;;;5090419;28;20898;-57
2023/09/10 04:53:52;;;;;;;49.53;43.33;;;17.70;99.90;;;;;;5089889;28;20518;-57
2023/09/10 04:56:18;;;;;;;47.63;42.50;;;17.70;99.90;;;;;;5090310;28;20438;-57
2023/09/10 04:58:45;;;;;;;47.70;42.67;;;17.70;99.90;;;;;;5089700;28;20450;-57
2023/09/10 05:01:12;;;;;;;47.43;42.30;;;17.70;99.90;;;;;;5088633;28;20454;-58
2023/09/10 05:03:41;;;;;;;54.70;44.63;;;17.70;99.90;;;;;;5089256;28;20950;-57
2023/09/10 05:06:08;;;;;;;52.13;43.07;;;17.70;99.90;;;;;;5089631;28;20446;-58
2023/09/10 05:08:35;;;;;;;48.37;42.97;;;17.80;99.90;;;;;;5089189;28;20939;-58
2023/09/10 05:11:02;;;;;;;46.50;40.23;;;17.90;99.90;;;;;;5088722;28;20494;-58
2023/09/10 05:13:29;;;;;;;46.47;41.47;;;17.90;99.90;;;;;;5089346;28;20640;-58
2023/09/10 05:15:57;;;;;;;52.43;43.27;;;17.90;99.90;;;;;;5089372;28;20805;-58
2023/09/10 05:18:24;;;;;;;44.23;38.87;;;18.00;99.90;;;;;;5089397;28;20458;-58
2023/09/10 05:20:53;;;;;;;47.27;41.40;;;18.00;99.90;;;;;;5089189;28;20434;-57
2023/09/10 05:23:19;;;;;;;47.00;41.90;;;18.10;99.90;;;;;;5077116;28;20496;-57
2023/09/10 05:25:46;;;;;;;45.10;40.40;;;18.10;99.90;;;;;;5075780;28;20439;-57
2023/09/10 05:28:13;;;;;;;47.23;41.83;;;18.20;99.90;;;;;;5075687;28;20443;-58
2023/09/10 05:30:40;;;;;;;47.43;42.17;;;18.20;99.90;;;;;;5075752;28;20486;-57
2023/09/10 05:33:06;;;;;;;46.20;39.53;;;18.20;99.90;;;;;;5075878;28;20466;-57
2023/09/10 05:35:33;;;;;;;45.27;40.27;;;18.30;99.90;;;;;;5075347;28;20442;-57
2023/09/10 05:38:01;;;;;;;47.20;40.03;;;18.30;99.90;;;;;;5075286;28;20447;-57
2023/09/10 05:40:28;;;;;;;41.10;36.80;;;18.40;99.90;;;;;;5075385;28;20451;-58
2023/09/10 05:42:55;;;;;;;47.27;40.30;;;18.50;99.90;;;;;;5075150;28;20828;-57
2023/09/10 05:45:22;;;;;;;45.37;40.47;;;18.50;99.90;;;;;;5075899;28;20447;-58
2023/09/10 05:47:49;;;;;;;43.80;39.13;;;18.60;99.90;;;;;;5075715;28;20442;-57
2023/09/10 05:50:16;;;;;;;43.97;38.10;;;18.60;99.90;;;;;;5075688;28;20439;-57
2023/09/10 05:52:45;;;;;;;41.97;37.00;;;18.70;99.90;;;;;;5075667;28;20848;-57
2023/09/10 05:55:13;;;;;;;43.80;38.93;;;18.70;99.90;;;;;;5075435;28;20450;-58
2023/09/10 05:57:39;;;;;;;45.90;39.10;;;18.80;99.90;;;;;;5075585;28;20808;-56
2023/09/10 06:00:08;;;;;;;45.50;40.63;;;18.80;99.90;;;;;;5075260;28;20435;-58
2023/09/10 06:02:34;;;;;;;43.67;39.07;;;18.90;99.90;;;;;;5075126;28;20498;-58
2023/09/10 06:05:01;;;;;;;45.93;41.00;;;19.00;99.90;;;;;;5075395;28;20803;-58
2023/09/10 06:07:28;;;;;;;51.60;38.70;;;19.00;99.90;;;;;;5075403;28;20443;-58
2023/09/10 06:09:55;;;;;;;43.50;37.93;;;19.10;99.90;;;;;;5075227;28;20897;-59
2023/09/10 06:12:23;;;;;;;40.27;35.60;;;19.20;99.90;;;;;;5074873;28;20491;-57
2023/09/10 06:14:50;;;;;;;41.77;37.17;;;19.20;99.90;;;;;;5074781;28;20434;-57
2023/09/10 06:17:17;;;;;;;42.93;38.60;;;19.30;99.90;;;;;;5074475;28;20435;-58
2023/09/10 06:19:47;;;;;;;47.70;38.70;;;19.30;99.90;;;;;;5074809;28;20443;-58
2023/09/10 06:22:14;;;;;;;40.30;36.03;;;19.40;99.90;;;;;;5074371;28;20451;-57
2023/09/10 06:24:41;;;;;;;43.07;38.57;;;19.50;99.90;;;;;;5074486;28;20454;-57
2023/09/10 06:27:08;;;;;;;40.97;36.30;;;19.50;99.90;;;;;;5074557;28;20435;-58
2023/09/10 06:29:36;;;;;;;41.40;37.20;;;19.60;99.90;;;;;;5074362;28;20445;-58
2023/09/10 06:32:03;;;;;;;43.00;35.30;;;19.60;99.90;;;;;;5074305;28;20810;-58
2023/09/10 06:34:29;;;;;;;40.53;36.17;;;19.70;99.90;;;;;;5073196;28;20438;-57
2023/09/10 06:36:56;;;;;;;38.47;34.47;;;19.80;99.90;;;;;;5074338;28;20451;-57
2023/09/10 06:39:23;;;;;;;41.27;36.83;;;19.90;99.90;;;;;;5073939;28;20967;-59
2023/09/10 06:41:50;;;;;;;40.87;36.57;;;19.90;99.90;;;;;;5074361;28;20474;-58
2023/09/10 06:44:16;;;;;;;39.40;35.20;;;20.00;99.90;;;;;;5074189;28;20450;-58
2023/09/10 06:46:44;;;;;;;40.67;36.47;;;20.10;99.90;;;;;;5074222;28;20442;-58
2023/09/10 06:49:11;;;;;;;40.43;36.17;;;20.20;99.90;;;;;;5073854;28;20435;-58
2023/09/10 06:51:38;;;;;;;40.70;36.60;;;20.20;99.90;;;;;;5074105;28;20487;-58
2023/09/10 06:54:05;;;;;;;41.03;36.67;;;20.30;99.90;;;;;;5074575;28;20443;-57
2023/09/10 06:56:31;;;;;;;40.77;35.60;;;20.30;99.90;;;;;;5073675;28;20443;-58
2023/09/10 06:58:58;;;;;;;38.50;34.37;;;20.40;99.90;;;;;;5074045;28;20430;-58
2023/09/10 07:01:25;;;;;;;38.37;34.33;;;20.40;99.90;;;;;;5073422;28;20972;-58
2023/09/10 07:03:53;;;;;;;41.13;36.67;;;20.40;99.90;;;;;;5073716;28;20443;-58
2023/09/10 07:06:20;;;;;;;37.17;33.40;;;20.50;99.90;;;;;;5073615;28;20812;-58
2023/09/10 07:08:47;;;;;;;40.80;33.77;;;20.60;99.90;;;;;;5073545;28;20963;-58
2023/09/10 07:11:13;;;;;;;38.03;34.03;;;20.70;99.90;;;;;;5073219;28;20491;-57
2023/09/10 07:13:40;;;;;;;36.33;32.47;;;20.80;99.90;;;;;;5073645;28;20431;-57
2023/09/10 07:16:07;;;;;;;37.30;32.73;;;20.90;99.90;;;;;;5073630;28;20443;-57
2023/09/10 07:18:34;;;;;;;36.83;33.10;;;21.00;99.90;;;;;;5073791;28;20435;-57
2023/09/10 07:21:02;;;;;;;37.50;33.70;;;21.00;99.90;;;;;;5073087;28;20794;-57
2023/09/10 07:23:29;;;;;;;35.93;32.33;;;21.10;99.90;;;;;;5073456;28;20443;-58
2023/09/10 07:25:56;;;;;;;35.50;31.67;;;21.10;99.90;;;;;;5073216;28;20967;-57
2023/09/10 07:28:23;;;;;;;35.40;31.70;;;21.20;99.90;;;;;;5073075;28;20537;-57
2023/09/10 07:30:50;;;;;;;32.23;28.93;;;21.30;99.90;;;;;;5073124;28;20435;-57
2023/09/10 07:33:17;;;;;;;34.60;31.10;;;21.40;99.90;;;;;;5073556;28;20447;-57
2023/09/10 07:35:43;;;;;;;32.57;29.17;;;21.50;99.90;;;;;;5073323;28;20442;-57
2023/09/10 07:38:11;;;;;;;33.90;30.40;;;21.60;99.90;;;;;;5073269;28;20565;-57
2023/09/10 07:40:38;;;;;;;34.13;30.20;;;21.70;99.90;;;;;;5073320;28;20443;-57
2023/09/10 07:43:05;;;;;;;34.00;30.17;;;21.80;99.90;;;;;;5073107;28;20972;-57
2023/09/10 07:45:31;;;;;;;33.50;30.17;;;21.80;99.90;;;;;;5073362;28;20449;-57
2023/09/10 07:47:59;;;;;;;32.93;29.43;;;21.90;99.90;;;;;;5073478;28;20441;-56
2023/09/10 07:50:27;;;;;;;30.90;27.80;;;21.90;99.90;;;;;;5073463;28;20446;-57
2023/09/10 07:52:54;;;;;;;33.57;30.13;;;22.00;99.90;;;;;;5073147;28;20588;-58
2023/09/10 07:55:22;;;;;;;32.57;29.17;;;22.10;99.90;;;;;;5073474;28;20443;-57
2023/09/10 07:57:49;;;;;;;30.43;27.40;;;22.20;99.90;;;;;;5073018;28;20956;-57
2023/09/10 08:00:17;;;;;;;30.97;27.80;;;22.20;99.90;;;;;;5073242;28;20434;-57
2023/09/10 08:02:44;;;;;;;30.57;27.57;;;22.30;99.90;;;;;;5073406;28;20459;-57
2023/09/10 08:05:10;;;;;;;31.17;28.13;;;22.30;99.90;;;;;;5073362;28;20804;-57
2023/09/10 08:07:37;;;;;;;32.63;29.13;;;22.40;99.90;;;;;;5074002;28;20450;-57
2023/09/10 08:10:05;;;;;;;30.53;26.80;;;22.40;99.90;;;;;;5073869;28;20453;-57
2023/09/10 08:12:33;;;;;;;29.53;26.50;;;22.50;99.90;;;;;;5074624;28;20483;-57
2023/09/10 08:14:59;;;;;;;30.70;27.50;;;22.50;99.90;;;;;;5074878;28;20505;-57
2023/09/10 08:17:26;;;;;;;30.40;27.27;;;22.60;99.90;;;;;;5074011;28;20770;-57
2023/09/10 08:19:53;;;;;;;28.27;25.47;;;22.70;99.90;;;;;;5073128;28;20436;-57
2023/09/10 08:22:19;;;;;;;27.97;25.20;;;22.70;99.90;;;;;;5073042;28;20459;-57
2023/09/10 08:24:48;;;;;;;26.20;23.77;;;22.80;99.90;;;;;;5073327;28;20454;-58
2023/09/10 08:27:15;;;;;;;26.60;23.97;;;22.90;99.90;;;;;;5073214;28;20553;-58
2023/09/10 08:29:43;;;;;;;24.67;22.23;;;23.00;99.90;;;;;;5073394;28;20454;-58
2023/09/10 08:32:10;;;;;;;23.80;21.40;;;23.10;99.90;;;;;;5073235;28;20505;-58
2023/09/10 08:34:36;;;;;;;22.93;20.73;;;23.20;99.90;;;;;;5073068;28;20446;-57
2023/09/10 08:37:05;;;;;;;22.47;19.97;;;23.30;99.90;;;;;;5072749;28;20439;-57
2023/09/10 08:39:32;;;;;;;21.70;19.53;;;23.30;99.90;;;;;;5073039;28;20466;-58
2023/09/10 08:42:06;;;;;;;21.70;19.70;;;23.40;99.90;;;;;;5072500;28;20462;-58
2023/09/10 08:44:34;;;;;;;23.33;20.93;;;23.50;99.00;;;;;;5072666;28;20430;-58
2023/09/10 08:47:03;;;;;;;20.53;18.63;;;23.50;98.20;;;;;;5072642;28;20443;-58
2023/09/10 08:49:34;;;;;;;22.53;20.33;;;23.60;97.80;;;;;;5072483;28;20435;-58
2023/09/10 08:52:02;;;;;;;24.27;20.37;;;23.70;97.10;;;;;;5072458;28;20490;-58
2023/09/10 08:54:29;;;;;;;20.93;18.83;;;23.80;96.30;;;;;;5072646;28;20501;-58
2023/09/10 08:56:57;;;;;;;20.17;18.07;;;23.80;95.60;;;;;;5072672;28;20557;-58
2023/09/10 08:59:24;;;;;;;25.40;20.03;;;23.90;94.60;;;;;;5076031;28;20446;-57
2023/09/10 09:01:50;;;;;;;22.00;19.70;;;23.90;93.80;;;;;;5075735;28;20451;-58
2023/09/10 09:04:19;;;;;;;24.77;18.53;;;24.00;93.20;;;;;;5075964;28;20431;-58
2023/09/10 09:06:51;;;;;;;19.30;17.50;;;24.10;92.70;;;;;;5075785;28;20443;-58
2023/09/10 09:09:21;;;;;;;20.13;18.20;;;24.20;92.10;;;;;;5076428;28;20420;-59
2023/09/10 09:11:50;;;;;;;18.07;16.37;;;24.30;91.50;;;;;;5075410;28;20487;-58
2023/09/10 09:14:18;;;;;;;18.37;16.50;;;24.40;91.00;;;;;;5075668;28;20446;-59
2023/09/10 09:16:47;;;;;;;21.37;19.17;;;24.40;90.60;;;;;;5075244;28;20439;-59
2023/09/10 09:19:15;;;;;;;19.00;17.10;;;24.40;90.20;;;;;;5075534;28;20447;-58
2023/09/10 09:21:44;;;;;;;19.57;17.53;;;24.40;90.00;;;;;;5075092;28;20811;-59
2023/09/10 09:24:13;;;;;;;19.80;17.80;;;24.50;89.50;;;;;;5074845;28;20447;-58
2023/09/10 09:26:41;;;;;;;18.33;16.40;;;24.70;88.70;;;;;;5075327;28;20442;-59
2023/09/10 09:29:08;;;;;;;18.53;16.80;;;24.70;87.60;;;;;;5075398;28;20447;-59
2023/09/10 09:31:35;;;;;;;18.70;16.80;;;24.80;86.90;;;;;;5074621;28;20463;-58
2023/09/10 09:34:02;;;;;;;19.30;17.50;;;24.90;86.00;;;;;;5075321;28;20439;-58
2023/09/10 09:36:30;;;;;;;18.63;16.93;;;24.90;85.30;;;;;;5074657;28;20440;-58
2023/09/10 09:38:58;;;;;;;16.67;15.20;;;24.90;84.50;;;;;;5074492;28;20557;-58
2023/09/10 09:41:25;;;;;;;16.00;14.50;;;25.00;83.90;;;;;;5074709;28;20463;-58
2023/09/10 09:43:51;;;;;;;17.50;15.80;;;25.10;83.80;;;;;;5075156;28;20454;-58
2023/09/10 09:46:18;;;;;;;17.17;15.57;;;25.10;82.60;;;;;;5074987;28;20443;-58
2023/09/10 09:48:45;;;;;;;17.07;15.47;;;25.20;81.90;;;;;;5075275;28;20443;-58
2023/09/10 09:51:15;;;;;;;18.50;16.80;;;25.20;81.80;;;;;;5075151;28;20466;-58
2023/09/10 09:53:43;;;;;;;15.97;14.47;;;25.30;81.40;;;;;;5075647;28;20475;-58
2023/09/10 09:56:11;;;;;;;16.53;15.13;;;25.30;80.80;;;;;;5075162;28;20444;-58
2023/09/10 09:58:38;;;;;;;20.20;18.30;;;25.40;80.50;;;;;;5075361;28;20811;-58
2023/09/10 10:01:04;;;;;;;16.83;15.43;;;25.50;80.20;;;;;;5075092;28;20453;-58
2023/09/10 10:03:32;;;;;;;19.87;18.00;;;25.50;79.90;;;;;;5074980;28;20450;-58
2023/09/10 10:05:59;;;;;;;19.43;17.40;;;25.60;79.60;;;;;;5074869;28;20450;-58
2023/09/10 10:08:28;;;;;;;19.60;17.60;;;25.60;79.40;;;;;;5074829;28;20462;-58
2023/09/10 10:10:55;;;;;;;19.30;17.43;;;25.70;79.20;;;;;;5074321;28;20487;-58
2023/09/10 10:13:24;;;;;;;17.90;16.20;;;25.80;78.90;;;;;;5074841;28;20502;-58
2023/09/10 10:15:53;;;;;;;21.33;19.07;;;25.90;78.40;;;;;;5074629;28;20945;-59
2023/09/10 10:18:22;;;;;;;14.30;12.87;;;25.90;77.80;;;;;;5074621;28;20519;-56
2023/09/10 10:20:50;;;;;;;15.67;14.17;;;25.90;77.70;;;;;;5074878;28;20443;-59
2023/09/10 10:23:18;;;;;;;16.63;15.17;;;26.00;76.70;;;;;;5074725;28;20442;-59
2023/09/10 10:25:46;;;;;;;16.53;14.93;;;26.00;76.30;;;;;;5074557;28;20443;-59
2023/09/10 10:28:13;;;;;;;17.10;15.40;;;26.10;76.40;;;;;;5074794;28;20829;-59
2023/09/10 10:30:49;;;;;;;17.43;15.20;;;26.20;75.80;;;;;;5074470;28;20446;-59
2023/09/10 10:33:18;;;;;;;17.67;16.10;;;26.20;75.30;;;;;;5074624;28;20462;-58
2023/09/10 10:35:59;;;;;;;19.93;18.03;;;26.30;75.20;;;;;;5074837;28;20435;-58
2023/09/10 10:38:32;;;;;;;17.60;15.90;;;26.30;75.00;;;;;;5074579;28;20786;-58
2023/09/10 10:41:02;;;;;;;15.60;14.17;;;26.40;75.10;;;;;;5074527;28;20431;-58
2023/09/10 10:43:32;;;;;;;13.90;12.50;;;26.40;74.90;;;;;;5074722;28;20815;-59
2023/09/10 10:46:03;;;;;;;16.27;14.43;;;26.50;74.60;;;;;;5074246;28;20458;-58
2023/09/10 10:48:32;;;;;;;16.93;15.33;;;26.50;74.30;;;;;;5074593;28;20419;-59
2023/09/10 10:51:02;;;;;;;16.60;15.20;;;26.60;74.10;;;;;;5074082;28;20970;-59
2023/09/10 10:53:29;;;;;;;14.80;13.40;;;26.60;74.00;;;;;;5074333;28;20479;-59
2023/09/10 10:56:03;;;;;;;14.83;13.50;;;26.60;74.00;;;;;;5074264;28;20474;-59
2023/09/10 10:58:30;;;;;;;16.77;14.97;;;26.70;73.80;;;;;;5074271;28;20767;-57
2023/09/10 11:01:00;;;;;;;15.70;14.20;;;26.80;73.40;;;;;;5074038;28;20443;-58
2023/09/10 11:03:26;;;;;;;17.20;15.50;;;26.80;73.00;;;;;;5074216;28;20435;-58
2023/09/10 11:06:07;;;;;;;13.73;12.30;;;26.90;72.70;;;;;;5074236;28;20465;-58
2023/09/10 11:08:36;;;;;;;11.80;10.73;;;26.90;72.20;;;;;;5074828;28;20442;-58
2023/09/10 11:11:04;;;;;;;11.90;10.70;;;27.00;71.80;;;;;;5073646;28;20466;-58
2023/09/10 11:13:31;;;;;;;10.47;9.47;;;27.00;70.60;;;;;;5073664;28;20475;-58
2023/09/10 11:16:23;;;;;;;10.30;8.50;;;27.10;69.70;;;;;;5073199;28;20447;-58
2023/09/10 11:18:51;;;;;;;11.57;10.37;;;27.20;68.30;;;;;;5058165;28;20454;-59
2023/09/10 11:21:18;;;;;;;11.07;10.07;;;27.20;67.20;;;;;;5073048;28;20463;-59
2023/09/10 11:24:18;;;;;;;10.23;9.37;;;27.30;67.10;;;;;;5073321;28;20435;-59
2023/09/10 11:26:45;;;;;;;11.53;8.13;;;27.40;64.80;;;;;;5071445;28;20964;-58
2023/09/10 11:29:16;;;;;;;8.37;7.63;;;27.40;64.00;;;;;;5073629;28;20430;-59
2023/09/10 11:31:47;;;;;;;8.57;7.67;;;27.50;62.80;;;;;;5074505;28;20459;-59
2023/09/10 11:34:35;;;;;;;11.80;6.90;;;27.50;61.60;;;;;;5073534;28;20463;-59
2023/09/10 11:37:03;;;;;;;8.30;7.00;;;27.60;60.20;;;;;;5073444;28;20441;-59
2023/09/10 11:39:31;;;;;;;7.93;6.70;;;27.70;59.40;;;;;;5073660;28;20439;-59
2023/09/10 11:42:00;;;;;;;6.30;5.70;;;27.70;58.40;;;;;;5073387;28;20462;-58
2023/09/10 11:44:26;;;;;;;7.30;6.03;;;27.70;57.20;;;;;;5073293;28;20446;-57
2023/09/10 11:46:55;;;;;;;7.27;6.63;;;27.70;56.60;;;;;;5073404;28;20447;-58
2023/09/10 11:49:23;;;;;;;5.80;5.30;;;27.80;56.20;;;;;;5073450;28;20446;-58
2023/09/10 11:51:52;;;;;;;6.47;5.87;;;27.80;55.80;;;;;;5073245;28;20474;-57
2023/09/10 11:54:20;;;;;;;5.93;5.20;;;28.00;55.10;;;;;;5072871;28;20999;-57
2023/09/10 11:56:47;;;;;;;6.70;6.10;;;28.00;54.60;;;;;;5072981;28;20446;-58
2023/09/10 11:59:15;;;;;;;6.07;5.57;;;28.00;53.90;;;;;;5072779;28;20439;-59
2023/09/10 12:01:41;;;;;;;6.10;5.60;;;27.90;53.40;;;;;;5072925;28;20470;-58
2023/09/10 12:04:10;;;;;;;6.67;6.07;;;27.90;53.30;;;;;;5072911;28;20442;-58
2023/09/10 12:06:37;;;;;;;6.67;6.03;;;28.00;53.40;;;;;;5074071;28;20465;-58
2023/09/10 12:09:05;;;;;;;10.90;6.90;;;28.00;53.30;;;;;;5073266;28;20461;-58
2023/09/10 12:11:34;;;;;;;8.30;5.80;;;28.00;53.30;;;;;;5072697;28;20467;-57
2023/09/10 12:14:02;;;;;;;6.47;5.60;;;28.10;53.30;;;;;;5072800;28;20565;-58
2023/09/10 12:16:29;;;;;;;8.20;6.70;;;28.10;52.70;;;;;;5072739;28;20444;-57
2023/09/10 12:18:56;;;;;;;6.33;5.83;;;28.10;52.70;;;;;;5072537;28;20446;-58
2023/09/10 12:21:25;;;;;;;6.20;5.60;;;28.10;52.40;;;;;;5072600;28;20462;-59
2023/09/10 12:23:52;;;;;;;5.70;5.10;;;28.20;52.00;;;;;;5072452;28;20439;-58
2023/09/10 12:26:19;;;;;;;7.90;6.30;;;28.20;51.60;;;;;;5072370;28;20439;-58
2023/09/10 12:28:46;;;;;;;6.13;5.33;;;28.20;51.50;;;;;;5072404;28;20997;-58
2023/09/10 12:31:13;;;;;;;13.83;6.00;;;28.40;51.40;;;;;;5072451;28;20987;-59
2023/09/10 12:33:41;;;;;;;5.63;5.00;;;28.50;50.80;;;;;;5075958;28;21026;-59
2023/09/10 12:36:08;;;;;;;6.27;5.23;;;28.50;50.20;;;;;;5076571;28;20458;-58
2023/09/10 12:38:36;;;;;;;6.07;5.53;;;28.60;50.10;;;;;;5076908;28;20451;-57
2023/09/10 12:41:02;;;;;;;7.73;5.20;;;28.60;50.10;;;;;;5076254;28;20443;-58